sensor_id;sensor_type;location;lat;lon;timestamp;pressure;altitude;pressure_sealevel;temperature;humidity
28626;BME280;18905;42.668;23.364;2023-01-27T00:00:31;94241.28;;;0.56;100.00
28626;BME280;18905;42.668;23.364;2023-01-27T00:02:56;94275.38;;;0.82;100.00
28626;BME280;18905;42.668;23.364;2023-01-27T00:05:22;94279.41;;;0.75;100.00
28626;BME280;18905;42.668;23.364;2023-01-27T00:07:48;94243.06;;;0.70;100.00
28626;BME280;18905;42.668;23.364;2023-01-27T00:10:18;94274.16;;;1.03;100.00
28626;BME280;18905;42.668;23.364;2023-01-27T00:12:45;94271.75;;;1.07;100.00
28626;BME280;18905;42.668;23.364;2023-01-27T00:15:30;94266.38;;;1.12;100.00
28626;BME280;18905;42.668;23.364;2023-01-27T00:17:56;94254.06;;;0.92;100.00
28626;BME280;18905;42.668;23.364;2023-01-27T00:20:22;94224.19;;;0.72;100.00
28626;BME280;18905;42.668;23.364;2023-01-27T00:25:57;94241.84;;;0.52;100.00
28626;BME280;18905;42.668;23.364;2023-01-27T00:28:25;94245.00;;;0.60;100.00
28626;BME280;18905;42.668;23.364;2023-01-27T00:30:51;94232.16;;;0.72;100.00
28626;BME280;18905;42.668;23.364;2023-01-27T00:33:17;94236.16;;;0.69;100.00
28626;BME280;18905;42.668;23.364;2023-01-27T00:36:06;94212.81;;;0.66;100.00
28626;BME280;18905;42.668;23.364;2023-01-27T00:38:34;94255.88;;;0.97;100.00
28626;BME280;18905;42.668;23.364;2023-01-27T00:41:05;94244.47;;;0.96;100.00
28626;BME280;18905;42.668;23.364;2023-01-27T00:43:44;94244.56;;;1.15;100.00
28626;BME280;18905;42.668;23.364;2023-01-27T00:46:11;94234.41;;;1.22;100.00
28626;BME280;18905;42.668;23.364;2023-01-27T00:48:37;94233.38;;;1.18;100.00
28626;BME280;18905;42.668;23.364;2023-01-27T00:51:02;94229.34;;;0.92;100.00
28626;BME280;18905;42.668;23.364;2023-01-27T00:53:28;94242.84;;;0.95;100.00
28626;BME280;18905;42.668;23.364;2023-01-27T00:55:53;94243.94;;;0.94;100.00
28626;BME280;18905;42.668;23.364;2023-01-27T00:58:19;94240.50;;;0.89;100.00
28626;BME280;18905;42.668;23.364;2023-01-27T01:00:45;94239.47;;;0.85;100.00
28626;BME280;18905;42.668;23.364;2023-01-27T01:03:10;94238.81;;;1.03;100.00
28626;BME280;18905;42.668;23.364;2023-01-27T01:05:36;94187.72;;;0.77;100.00
28626;BME280;18905;42.668;23.364;2023-01-27T01:08:02;94234.47;;;1.12;100.00
28626;BME280;18905;42.668;23.364;2023-01-27T01:10:28;94210.81;;;0.82;100.00
28626;BME280;18905;42.668;23.364;2023-01-27T01:12:53;94114.91;;;0.16;100.00
28626;BME280;18905;42.668;23.364;2023-01-27T01:15:19;94249.97;;;1.05;100.00
28626;BME280;18905;42.668;23.364;2023-01-27T01:17:44;94207.44;;;0.71;100.00
28626;BME280;18905;42.668;23.364;2023-01-27T01:20:10;94250.25;;;1.03;100.00
28626;BME280;18905;42.668;23.364;2023-01-27T01:22:35;94259.25;;;1.07;100.00
28626;BME280;18905;42.668;23.364;2023-01-27T01:25:01;94233.97;;;1.10;100.00
28626;BME280;18905;42.668;23.364;2023-01-27T01:27:26;94222.06;;;1.02;100.00
28626;BME280;18905;42.668;23.364;2023-01-27T01:29:51;94226.78;;;0.82;100.00
28626;BME280;18905;42.668;23.364;2023-01-27T01:32:17;94195.81;;;0.62;100.00
28626;BME280;18905;42.668;23.364;2023-01-27T01:34:42;94250.38;;;0.88;100.00
28626;BME280;18905;42.668;23.364;2023-01-27T01:37:08;94238.22;;;0.77;100.00
28626;BME280;18905;42.668;23.364;2023-01-27T01:39:33;94269.41;;;1.00;100.00
28626;BME280;18905;42.668;23.364;2023-01-27T01:41:59;94238.84;;;0.98;100.00
28626;BME280;18905;42.668;23.364;2023-01-27T01:44:27;94272.63;;;1.31;100.00
28626;BME280;18905;42.668;23.364;2023-01-27T01:46:53;94268.03;;;1.08;100.00
28626;BME280;18905;42.668;23.364;2023-01-27T01:49:22;94271.31;;;0.95;100.00
28626;BME280;18905;42.668;23.364;2023-01-27T01:51:53;94207.84;;;0.55;100.00
28626;BME280;18905;42.668;23.364;2023-01-27T01:54:31;94203.59;;;0.54;100.00
28626;BME280;18905;42.668;23.364;2023-01-27T01:57:06;94237.53;;;0.67;100.00
28626;BME280;18905;42.668;23.364;2023-01-27T02:00:04;94245.44;;;0.72;100.00
28626;BME280;18905;42.668;23.364;2023-01-27T02:02:32;94184.88;;;0.35;100.00
28626;BME280;18905;42.668;23.364;2023-01-27T02:05:18;94226.72;;;0.87;100.00
28626;BME280;18905;42.668;23.364;2023-01-27T02:08:12;94202.72;;;0.63;100.00
28626;BME280;18905;42.668;23.364;2023-01-27T02:10:39;94218.75;;;0.87;100.00
28626;BME280;18905;42.668;23.364;2023-01-27T02:13:05;94163.69;;;0.64;100.00
28626;BME280;18905;42.668;23.364;2023-01-27T02:15:31;94123.38;;;0.23;100.00
28626;BME280;18905;42.668;23.364;2023-01-27T02:17:58;94193.72;;;0.93;100.00
28626;BME280;18905;42.668;23.364;2023-01-27T02:20:30;94164.53;;;0.88;100.00
28626;BME280;18905;42.668;23.364;2023-01-27T02:25:53;94191.28;;;1.25;100.00
28626;BME280;18905;42.668;23.364;2023-01-27T02:28:21;94153.34;;;0.91;100.00
28626;BME280;18905;42.668;23.364;2023-01-27T02:30:46;94161.97;;;1.06;100.00
28626;BME280;18905;42.668;23.364;2023-01-27T02:33:13;94187.78;;;1.29;100.00
28626;BME280;18905;42.668;23.364;2023-01-27T02:35:49;94164.69;;;1.25;100.00
28626;BME280;18905;42.668;23.364;2023-01-27T02:38:16;94180.63;;;1.25;100.00
28626;BME280;18905;42.668;23.364;2023-01-27T02:40:43;94189.31;;;1.07;100.00
28626;BME280;18905;42.668;23.364;2023-01-27T02:43:10;94132.03;;;0.67;100.00
28626;BME280;18905;42.668;23.364;2023-01-27T02:45:35;94167.22;;;0.83;100.00
28626;BME280;18905;42.668;23.364;2023-01-27T02:48:01;94165.06;;;0.85;100.00
28626;BME280;18905;42.668;23.364;2023-01-27T02:50:27;94177.22;;;0.96;100.00
28626;BME280;18905;42.668;23.364;2023-01-27T02:52:52;94202.50;;;1.22;100.00
28626;BME280;18905;42.668;23.364;2023-01-27T02:55:18;94172.72;;;1.20;100.00
28626;BME280;18905;42.668;23.364;2023-01-27T02:57:43;94183.44;;;1.38;100.00
28626;BME280;18905;42.668;23.364;2023-01-27T03:00:09;94165.94;;;1.32;100.00
28626;BME280;18905;42.668;23.364;2023-01-27T03:02:38;94174.97;;;1.08;100.00
28626;BME280;18905;42.668;23.364;2023-01-27T03:05:04;94181.28;;;1.12;100.00
28626;BME280;18905;42.668;23.364;2023-01-27T03:07:29;94177.78;;;1.45;100.00
28626;BME280;18905;42.668;23.364;2023-01-27T03:09:55;94186.31;;;1.42;100.00
28626;BME280;18905;42.668;23.364;2023-01-27T03:12:20;94176.13;;;1.25;100.00
28626;BME280;18905;42.668;23.364;2023-01-27T03:14:47;94172.34;;;1.31;100.00
28626;BME280;18905;42.668;23.364;2023-01-27T03:17:32;94150.25;;;1.54;100.00
28626;BME280;18905;42.668;23.364;2023-01-27T03:20:17;94167.84;;;1.74;100.00
28626;BME280;18905;42.668;23.364;2023-01-27T03:22:42;94148.69;;;1.53;100.00
28626;BME280;18905;42.668;23.364;2023-01-27T03:25:08;94155.03;;;1.76;100.00
28626;BME280;18905;42.668;23.364;2023-01-27T03:27:34;94130.59;;;1.74;100.00
28626;BME280;18905;42.668;23.364;2023-01-27T03:29:59;94154.41;;;1.84;100.00
28626;BME280;18905;42.668;23.364;2023-01-27T03:32:27;94141.50;;;1.54;100.00
28626;BME280;18905;42.668;23.364;2023-01-27T03:34:53;94137.00;;;1.31;100.00
28626;BME280;18905;42.668;23.364;2023-01-27T03:37:22;94113.06;;;1.31;100.00
28626;BME280;18905;42.668;23.364;2023-01-27T03:40:09;94127.97;;;1.50;100.00
28626;BME280;18905;42.668;23.364;2023-01-27T03:42:53;94110.63;;;1.53;100.00
28626;BME280;18905;42.668;23.364;2023-01-27T03:45:37;94118.22;;;1.64;100.00
28626;BME280;18905;42.668;23.364;2023-01-27T03:48:22;94109.19;;;1.42;100.00
28626;BME280;18905;42.668;23.364;2023-01-27T03:50:47;94097.03;;;1.12;100.00
28626;BME280;18905;42.668;23.364;2023-01-27T03:53:19;94128.91;;;0.89;100.00
28626;BME280;18905;42.668;23.364;2023-01-27T03:55:44;94118.59;;;0.82;100.00
28626;BME280;18905;42.668;23.364;2023-01-27T04:00:51;94119.31;;;0.64;100.00
28626;BME280;18905;42.668;23.364;2023-01-27T04:03:17;94110.59;;;0.59;100.00
28626;BME280;18905;42.668;23.364;2023-01-27T04:06:03;94149.44;;;0.83;100.00
28626;BME280;18905;42.668;23.364;2023-01-27T04:08:47;94163.97;;;0.91;100.00
28626;BME280;18905;42.668;23.364;2023-01-27T04:11:13;94162.28;;;1.00;100.00
28626;BME280;18905;42.668;23.364;2023-01-27T04:14:02;94158.88;;;0.66;100.00
28626;BME280;18905;42.668;23.364;2023-01-27T04:16:29;94200.84;;;0.97;100.00
28626;BME280;18905;42.668;23.364;2023-01-27T04:18:55;94172.09;;;0.76;100.00
28626;BME280;18905;42.668;23.364;2023-01-27T04:21:21;94175.25;;;0.44;100.00
28626;BME280;18905;42.668;23.364;2023-01-27T04:23:47;94167.47;;;0.52;100.00
28626;BME280;18905;42.668;23.364;2023-01-27T04:26:12;94142.47;;;0.25;100.00
28626;BME280;18905;42.668;23.364;2023-01-27T04:28:37;94208.31;;;0.62;100.00
28626;BME280;18905;42.668;23.364;2023-01-27T04:31:03;94174.31;;;0.64;100.00
28626;BME280;18905;42.668;23.364;2023-01-27T04:33:28;94193.53;;;0.84;100.00
28626;BME280;18905;42.668;23.364;2023-01-27T04:35:54;94221.88;;;0.94;100.00
28626;BME280;18905;42.668;23.364;2023-01-27T04:38:20;94190.06;;;0.84;100.00
28626;BME280;18905;42.668;23.364;2023-01-27T04:40:46;94195.50;;;0.69;100.00
28626;BME280;18905;42.668;23.364;2023-01-27T04:43:11;94175.56;;;0.38;100.00
28626;BME280;18905;42.668;23.364;2023-01-27T04:45:37;94178.34;;;0.17;100.00
28626;BME280;18905;42.668;23.364;2023-01-27T04:48:02;94168.97;;;0.30;100.00
28626;BME280;18905;42.668;23.364;2023-01-27T04:50:28;94215.03;;;0.05;100.00
28626;BME280;18905;42.668;23.364;2023-01-27T04:52:53;94177.81;;;0.15;100.00
28626;BME280;18905;42.668;23.364;2023-01-27T04:55:19;94201.81;;;0.44;100.00
28626;BME280;18905;42.668;23.364;2023-01-27T04:57:44;94180.00;;;0.08;100.00
28626;BME280;18905;42.668;23.364;2023-01-27T05:00:11;94212.03;;;0.22;100.00
28626;BME280;18905;42.668;23.364;2023-01-27T05:02:37;94189.88;;;0.42;100.00
28626;BME280;18905;42.668;23.364;2023-01-27T05:05:02;94201.34;;;0.71;100.00
28626;BME280;18905;42.668;23.364;2023-01-27T05:07:29;94211.72;;;0.67;100.00
28626;BME280;18905;42.668;23.364;2023-01-27T05:09:55;94193.81;;;0.83;100.00
28626;BME280;18905;42.668;23.364;2023-01-27T05:12:20;94179.59;;;0.97;100.00
28626;BME280;18905;42.668;23.364;2023-01-27T05:14:46;94214.28;;;1.86;100.00
28626;BME280;18905;42.668;23.364;2023-01-27T05:17:11;94202.50;;;1.92;100.00
28626;BME280;18905;42.668;23.364;2023-01-27T05:19:37;94187.44;;;2.43;100.00
28626;BME280;18905;42.668;23.364;2023-01-27T05:22:02;94209.66;;;3.21;100.00
28626;BME280;18905;42.668;23.364;2023-01-27T05:24:27;94193.31;;;3.68;100.00
28626;BME280;18905;42.668;23.364;2023-01-27T05:26:53;94193.09;;;4.19;100.00
28626;BME280;18905;42.668;23.364;2023-01-27T05:29:18;94173.22;;;3.30;100.00
28626;BME280;18905;42.668;23.364;2023-01-27T05:31:43;94151.53;;;3.05;100.00
28626;BME280;18905;42.668;23.364;2023-01-27T05:34:09;94178.00;;;3.15;100.00
28626;BME280;18905;42.668;23.364;2023-01-27T05:36:34;94180.69;;;2.83;100.00
28626;BME280;18905;42.668;23.364;2023-01-27T05:39:00;94196.94;;;2.68;100.00
28626;BME280;18905;42.668;23.364;2023-01-27T05:41:28;94170.94;;;2.23;100.00
28626;BME280;18905;42.668;23.364;2023-01-27T05:43:55;94160.72;;;2.30;100.00
28626;BME280;18905;42.668;23.364;2023-01-27T05:46:25;94140.25;;;2.07;100.00
28626;BME280;18905;42.668;23.364;2023-01-27T05:48:53;94176.56;;;2.21;100.00
28626;BME280;18905;42.668;23.364;2023-01-27T05:51:20;94184.63;;;2.16;100.00
28626;BME280;18905;42.668;23.364;2023-01-27T05:53:46;94185.19;;;2.32;100.00
28626;BME280;18905;42.668;23.364;2023-01-27T05:56:14;94157.31;;;2.06;100.00
28626;BME280;18905;42.668;23.364;2023-01-27T05:58:41;94193.44;;;1.70;100.00
28626;BME280;18905;42.668;23.364;2023-01-27T06:01:15;94204.88;;;1.47;100.00
28626;BME280;18905;42.668;23.364;2023-01-27T06:03:42;94208.28;;;1.76;100.00
28626;BME280;18905;42.668;23.364;2023-01-27T06:06:12;94183.50;;;0.76;100.00
28626;BME280;18905;42.668;23.364;2023-01-27T06:08:38;94165.34;;;0.55;100.00
28626;BME280;18905;42.668;23.364;2023-01-27T06:11:04;94200.69;;;0.84;100.00
28626;BME280;18905;42.668;23.364;2023-01-27T06:13:30;94183.91;;;1.17;100.00
28626;BME280;18905;42.668;23.364;2023-01-27T06:15:56;94160.72;;;0.99;100.00
28626;BME280;18905;42.668;23.364;2023-01-27T06:18:22;94186.53;;;1.22;100.00
28626;BME280;18905;42.668;23.364;2023-01-27T06:20:48;94200.09;;;0.92;100.00
28626;BME280;18905;42.668;23.364;2023-01-27T06:23:15;94213.41;;;0.92;100.00
28626;BME280;18905;42.668;23.364;2023-01-27T06:25:43;94209.22;;;1.38;100.00
28626;BME280;18905;42.668;23.364;2023-01-27T06:28:10;94205.19;;;1.17;100.00
28626;BME280;18905;42.668;23.364;2023-01-27T06:30:37;94199.69;;;1.37;100.00
28626;BME280;18905;42.668;23.364;2023-01-27T06:33:03;94199.66;;;0.80;100.00
28626;BME280;18905;42.668;23.364;2023-01-27T06:35:30;94203.78;;;0.96;100.00
28626;BME280;18905;42.668;23.364;2023-01-27T06:37:59;94207.25;;;0.63;100.00
28626;BME280;18905;42.668;23.364;2023-01-27T06:40:27;94214.13;;;0.69;100.00
28626;BME280;18905;42.668;23.364;2023-01-27T06:42:53;94214.97;;;0.59;100.00
28626;BME280;18905;42.668;23.364;2023-01-27T06:45:18;94178.19;;;0.43;100.00
28626;BME280;18905;42.668;23.364;2023-01-27T06:47:44;94178.66;;;0.11;100.00
28626;BME280;18905;42.668;23.364;2023-01-27T06:50:10;94223.03;;;0.44;100.00
28626;BME280;18905;42.668;23.364;2023-01-27T06:52:36;94230.13;;;0.59;100.00
28626;BME280;18905;42.668;23.364;2023-01-27T06:55:02;94202.09;;;0.38;100.00
28626;BME280;18905;42.668;23.364;2023-01-27T06:57:28;94189.13;;;0.70;100.00
28626;BME280;18905;42.668;23.364;2023-01-27T06:59:54;94217.34;;;0.94;100.00
28626;BME280;18905;42.668;23.364;2023-01-27T07:02:20;94213.69;;;1.19;100.00
28626;BME280;18905;42.668;23.364;2023-01-27T07:04:45;94231.69;;;1.27;100.00
28626;BME280;18905;42.668;23.364;2023-01-27T07:07:11;94203.69;;;1.06;100.00
28626;BME280;18905;42.668;23.364;2023-01-27T07:09:36;94237.28;;;1.25;100.00
28626;BME280;18905;42.668;23.364;2023-01-27T07:12:01;94241.72;;;1.06;100.00
28626;BME280;18905;42.668;23.364;2023-01-27T07:14:27;94232.97;;;0.67;100.00
28626;BME280;18905;42.668;23.364;2023-01-27T07:16:52;94183.84;;;0.65;100.00
28626;BME280;18905;42.668;23.364;2023-01-27T07:19:18;94189.41;;;0.35;100.00
28626;BME280;18905;42.668;23.364;2023-01-27T07:21:43;94218.84;;;0.77;100.00
28626;BME280;18905;42.668;23.364;2023-01-27T07:24:08;94194.84;;;0.87;100.00
28626;BME280;18905;42.668;23.364;2023-01-27T07:26:34;94204.78;;;1.05;100.00
28626;BME280;18905;42.668;23.364;2023-01-27T07:28:59;94184.38;;;0.67;100.00
28626;BME280;18905;42.668;23.364;2023-01-27T07:31:25;94205.09;;;0.98;100.00
28626;BME280;18905;42.668;23.364;2023-01-27T07:33:51;94220.69;;;1.38;100.00
28626;BME280;18905;42.668;23.364;2023-01-27T07:36:17;94234.78;;;1.10;100.00
28626;BME280;18905;42.668;23.364;2023-01-27T07:38:42;94212.94;;;1.13;100.00
28626;BME280;18905;42.668;23.364;2023-01-27T07:41:08;94207.25;;;0.96;100.00
28626;BME280;18905;42.668;23.364;2023-01-27T07:43:33;94229.53;;;1.29;100.00
28626;BME280;18905;42.668;23.364;2023-01-27T07:45:59;94210.75;;;1.20;100.00
28626;BME280;18905;42.668;23.364;2023-01-27T07:48:25;94237.59;;;1.71;100.00
28626;BME280;18905;42.668;23.364;2023-01-27T07:50:51;94230.56;;;1.33;100.00
28626;BME280;18905;42.668;23.364;2023-01-27T07:53:16;94235.19;;;1.22;100.00
28626;BME280;18905;42.668;23.364;2023-01-27T07:55:41;94237.78;;;1.27;100.00
28626;BME280;18905;42.668;23.364;2023-01-27T07:58:07;94248.53;;;1.46;100.00
28626;BME280;18905;42.668;23.364;2023-01-27T08:00:33;94196.56;;;1.01;100.00
28626;BME280;18905;42.668;23.364;2023-01-27T08:03:00;94216.22;;;1.00;100.00
28626;BME280;18905;42.668;23.364;2023-01-27T08:05:26;94184.09;;;0.97;100.00
28626;BME280;18905;42.668;23.364;2023-01-27T08:07:53;94212.44;;;1.11;100.00
28626;BME280;18905;42.668;23.364;2023-01-27T08:10:19;94238.16;;;1.16;100.00
28626;BME280;18905;42.668;23.364;2023-01-27T08:12:45;94202.09;;;0.76;100.00
28626;BME280;18905;42.668;23.364;2023-01-27T08:15:11;94223.84;;;1.12;100.00
28626;BME280;18905;42.668;23.364;2023-01-27T08:17:37;94231.59;;;1.37;100.00
28626;BME280;18905;42.668;23.364;2023-01-27T08:20:03;94222.81;;;1.36;100.00
28626;BME280;18905;42.668;23.364;2023-01-27T08:22:29;94191.16;;;1.40;100.00
28626;BME280;18905;42.668;23.364;2023-01-27T08:24:55;94187.38;;;1.64;100.00
28626;BME280;18905;42.668;23.364;2023-01-27T08:27:21;94196.59;;;1.95;100.00
28626;BME280;18905;42.668;23.364;2023-01-27T08:29:46;94236.66;;;2.09;100.00
28626;BME280;18905;42.668;23.364;2023-01-27T08:32:12;94203.88;;;1.66;100.00
28626;BME280;18905;42.668;23.364;2023-01-27T08:34:38;94234.56;;;1.59;100.00
28626;BME280;18905;42.668;23.364;2023-01-27T08:37:04;94189.47;;;1.44;100.00
28626;BME280;18905;42.668;23.364;2023-01-27T08:39:30;94232.44;;;2.03;100.00
28626;BME280;18905;42.668;23.364;2023-01-27T08:41:56;94222.84;;;1.83;100.00
28626;BME280;18905;42.668;23.364;2023-01-27T08:44:22;94192.31;;;1.00;100.00
28626;BME280;18905;42.668;23.364;2023-01-27T08:46:48;94230.94;;;1.50;100.00
28626;BME280;18905;42.668;23.364;2023-01-27T08:49:14;94220.69;;;1.10;100.00
28626;BME280;18905;42.668;23.364;2023-01-27T08:51:40;94196.84;;;1.00;100.00
28626;BME280;18905;42.668;23.364;2023-01-27T08:54:06;94220.78;;;1.52;100.00
28626;BME280;18905;42.668;23.364;2023-01-27T08:56:32;94232.63;;;1.88;100.00
28626;BME280;18905;42.668;23.364;2023-01-27T08:58:58;94218.41;;;1.50;100.00
28626;BME280;18905;42.668;23.364;2023-01-27T09:01:24;94200.06;;;1.49;100.00
28626;BME280;18905;42.668;23.364;2023-01-27T09:03:50;94208.19;;;1.62;100.00
28626;BME280;18905;42.668;23.364;2023-01-27T09:06:15;94196.44;;;1.63;100.00
28626;BME280;18905;42.668;23.364;2023-01-27T09:08:41;94232.50;;;1.98;100.00
28626;BME280;18905;42.668;23.364;2023-01-27T09:11:12;94204.34;;;1.21;100.00
28626;BME280;18905;42.668;23.364;2023-01-27T09:13:38;94222.41;;;1.48;100.00
28626;BME280;18905;42.668;23.364;2023-01-27T09:16:04;94239.81;;;1.64;100.00
28626;BME280;18905;42.668;23.364;2023-01-27T09:18:29;94221.41;;;1.67;100.00
28626;BME280;18905;42.668;23.364;2023-01-27T09:20:54;94200.03;;;1.54;100.00
28626;BME280;18905;42.668;23.364;2023-01-27T09:23:20;94207.22;;;1.53;100.00
28626;BME280;18905;42.668;23.364;2023-01-27T09:25:45;94186.88;;;1.15;100.00
28626;BME280;18905;42.668;23.364;2023-01-27T09:28:11;94199.19;;;1.06;100.00
28626;BME280;18905;42.668;23.364;2023-01-27T09:30:42;94130.19;;;0.34;100.00
28626;BME280;18905;42.668;23.364;2023-01-27T09:33:09;94179.84;;;0.67;100.00
28626;BME280;18905;42.668;23.364;2023-01-27T09:35:48;94212.84;;;0.95;100.00
28626;BME280;18905;42.668;23.364;2023-01-27T09:38:19;94210.50;;;1.17;100.00
28626;BME280;18905;42.668;23.364;2023-01-27T09:44:05;94201.47;;;1.41;100.00
28626;BME280;18905;42.668;23.364;2023-01-27T09:46:38;94192.78;;;1.59;100.00
28626;BME280;18905;42.668;23.364;2023-01-27T09:49:15;94203.13;;;1.61;100.00
28626;BME280;18905;42.668;23.364;2023-01-27T09:57:52;94184.81;;;1.36;100.00
28626;BME280;18905;42.668;23.364;2023-01-27T10:00:45;94180.06;;;0.71;100.00
28626;BME280;18905;42.668;23.364;2023-01-27T10:28:22;94152.41;;;0.77;100.00
28626;BME280;18905;42.668;23.364;2023-01-27T10:33:21;94158.00;;;1.04;100.00
28626;BME280;18905;42.668;23.364;2023-01-27T10:41:26;94170.78;;;1.54;100.00
28626;BME280;18905;42.668;23.364;2023-01-27T10:44:19;94171.47;;;1.59;100.00
28626;BME280;18905;42.668;23.364;2023-01-27T10:49:17;94168.16;;;0.97;100.00
28626;BME280;18905;42.668;23.364;2023-01-27T10:52:25;94164.53;;;1.40;100.00
28626;BME280;18905;42.668;23.364;2023-01-27T10:55:00;94160.63;;;1.09;100.00
28626;BME280;18905;42.668;23.364;2023-01-27T10:57:34;94153.28;;;1.24;100.00
28626;BME280;18905;42.668;23.364;2023-01-27T11:00:04;94143.75;;;0.95;100.00
28626;BME280;18905;42.668;23.364;2023-01-27T11:02:41;94135.91;;;0.80;100.00
28626;BME280;18905;42.668;23.364;2023-01-27T11:05:18;94172.59;;;0.78;100.00
28626;BME280;18905;42.668;23.364;2023-01-27T11:07:55;94150.53;;;0.77;100.00
28626;BME280;18905;42.668;23.364;2023-01-27T11:10:24;94157.16;;;0.80;100.00
28626;BME280;18905;42.668;23.364;2023-01-27T11:12:54;94124.81;;;0.73;100.00
28626;BME280;18905;42.668;23.364;2023-01-27T11:15:29;94164.78;;;1.15;100.00
28626;BME280;18905;42.668;23.364;2023-01-27T11:18:00;94150.31;;;1.26;100.00
28626;BME280;18905;42.668;23.364;2023-01-27T11:20:43;94122.81;;;0.88;100.00
28626;BME280;18905;42.668;23.364;2023-01-27T11:23:17;94137.19;;;1.11;100.00
28626;BME280;18905;42.668;23.364;2023-01-27T11:26:05;94147.75;;;1.16;100.00
28626;BME280;18905;42.668;23.364;2023-01-27T11:28:41;94147.72;;;1.21;100.00
28626;BME280;18905;42.668;23.364;2023-01-27T11:36:46;94135.13;;;1.08;100.00
28626;BME280;18905;42.668;23.364;2023-01-27T11:39:13;94101.22;;;0.95;100.00
28626;BME280;18905;42.668;23.364;2023-01-27T11:41:42;94115.66;;;1.12;100.00
28626;BME280;18905;42.668;23.364;2023-01-27T11:44:28;94125.28;;;1.32;100.00
28626;BME280;18905;42.668;23.364;2023-01-27T11:46:55;94132.63;;;1.16;100.00
28626;BME280;18905;42.668;23.364;2023-01-27T11:49:25;94110.09;;;1.09;100.00
28626;BME280;18905;42.668;23.364;2023-01-27T11:51:59;94075.53;;;1.09;100.00
28626;BME280;18905;42.668;23.364;2023-01-27T11:54:34;94100.78;;;0.83;100.00
28626;BME280;18905;42.668;23.364;2023-01-27T11:57:03;94086.53;;;0.45;100.00
28626;BME280;18905;42.668;23.364;2023-01-27T11:59:32;94108.38;;;0.94;100.00
28626;BME280;18905;42.668;23.364;2023-01-27T12:02:02;94125.38;;;1.22;100.00
28626;BME280;18905;42.668;23.364;2023-01-27T12:04:54;94111.69;;;1.10;100.00
28626;BME280;18905;42.668;23.364;2023-01-27T12:09:56;94124.97;;;1.57;100.00
28626;BME280;18905;42.668;23.364;2023-01-27T12:12:24;94104.75;;;1.56;100.00
28626;BME280;18905;42.668;23.364;2023-01-27T12:14:58;94116.00;;;1.90;100.00
28626;BME280;18905;42.668;23.364;2023-01-27T12:17:26;94127.38;;;1.95;100.00
28626;BME280;18905;42.668;23.364;2023-01-27T12:19:56;94119.56;;;1.62;100.00
28626;BME280;18905;42.668;23.364;2023-01-27T12:22:29;94115.13;;;1.57;100.00
28626;BME280;18905;42.668;23.364;2023-01-27T12:25:13;94095.69;;;1.38;100.00
28626;BME280;18905;42.668;23.364;2023-01-27T12:27:46;94137.88;;;1.21;100.00
28626;BME280;18905;42.668;23.364;2023-01-27T12:30:33;94124.00;;;1.01;100.00
28626;BME280;18905;42.668;23.364;2023-01-27T12:33:11;94087.41;;;0.93;100.00
28626;BME280;18905;42.668;23.364;2023-01-27T12:35:38;94139.22;;;1.19;100.00
28626;BME280;18905;42.668;23.364;2023-01-27T12:38:34;94134.69;;;1.43;100.00
28626;BME280;18905;42.668;23.364;2023-01-27T12:41:02;94126.44;;;1.44;100.00
28626;BME280;18905;42.668;23.364;2023-01-27T12:43:29;94085.38;;;1.32;100.00
28626;BME280;18905;42.668;23.364;2023-01-27T12:46:14;94096.47;;;1.15;100.00
28626;BME280;18905;42.668;23.364;2023-01-27T12:48:47;94062.78;;;0.87;100.00
28626;BME280;18905;42.668;23.364;2023-01-27T12:51:17;94105.00;;;1.36;100.00
28626;BME280;18905;42.668;23.364;2023-01-27T12:53:43;94094.31;;;1.41;100.00
28626;BME280;18905;42.668;23.364;2023-01-27T12:56:12;94124.81;;;1.67;100.00
28626;BME280;18905;42.668;23.364;2023-01-27T13:01:17;94125.13;;;1.84;100.00
28626;BME280;18905;42.668;23.364;2023-01-27T13:03:48;94070.38;;;1.41;100.00
28626;BME280;18905;42.668;23.364;2023-01-27T13:06:17;94117.28;;;1.74;100.00
28626;BME280;18905;42.668;23.364;2023-01-27T13:08:43;94119.09;;;1.78;100.00
28626;BME280;18905;42.668;23.364;2023-01-27T13:11:10;94124.00;;;2.08;100.00
28626;BME280;18905;42.668;23.364;2023-01-27T13:13:36;94118.63;;;1.53;100.00
28626;BME280;18905;42.668;23.364;2023-01-27T13:16:03;94122.69;;;1.69;100.00
28626;BME280;18905;42.668;23.364;2023-01-27T13:18:35;94043.19;;;1.25;100.00
28626;BME280;18905;42.668;23.364;2023-01-27T13:21:12;94128.25;;;1.49;100.00
28626;BME280;18905;42.668;23.364;2023-01-27T13:23:40;94117.72;;;1.39;100.00
28626;BME280;18905;42.668;23.364;2023-01-27T13:31:11;94103.78;;;1.28;100.00
28626;BME280;18905;42.668;23.364;2023-01-27T13:44:39;94135.44;;;1.48;100.00
28626;BME280;18905;42.668;23.364;2023-01-27T13:47:15;94122.50;;;1.42;100.00
28626;BME280;18905;42.668;23.364;2023-01-27T13:49:46;94126.19;;;1.64;100.00
28626;BME280;18905;42.668;23.364;2023-01-27T13:52:12;94139.75;;;1.86;100.00
28626;BME280;18905;42.668;23.364;2023-01-27T13:54:38;94089.69;;;1.28;100.00
28626;BME280;18905;42.668;23.364;2023-01-27T13:57:47;94141.84;;;1.24;100.00
28626;BME280;18905;42.668;23.364;2023-01-27T14:00:20;94143.28;;;1.40;100.00
28626;BME280;18905;42.668;23.364;2023-01-27T14:05:40;94143.31;;;1.35;100.00
28626;BME280;18905;42.668;23.364;2023-01-27T14:11:00;94148.19;;;1.28;100.00
28626;BME280;18905;42.668;23.364;2023-01-27T14:16:30;94158.22;;;1.36;100.00
28626;BME280;18905;42.668;23.364;2023-01-27T14:24:45;94161.31;;;1.19;100.00
28626;BME280;18905;42.668;23.364;2023-01-27T14:27:17;94154.00;;;0.78;100.00
28626;BME280;18905;42.668;23.364;2023-01-27T14:30:09;94168.22;;;0.92;100.00
28626;BME280;18905;42.668;23.364;2023-01-27T14:32:45;94173.38;;;1.07;100.00
28626;BME280;18905;42.668;23.364;2023-01-27T14:46:43;94176.19;;;0.92;100.00